createdAt,value
2017-12-06T01:38:41.160Z,8.10
2017-12-06T01:38:41.736Z,8.10
2017-12-06T01:38:42.335Z,8.14
2017-12-06T01:38:42.935Z,8.14
2017-12-06T01:38:43.537Z,8.10
2017-12-06T01:38:44.136Z,8.15
2017-12-06T01:38:44.740Z,8.10
2017-12-06T01:38:45.344Z,8.08
2017-12-06T01:39:39.837Z,8.14
2017-12-06T01:39:40.410Z,8.04
2017-12-06T01:39:41.015Z,8.12
2017-12-06T01:39:41.610Z,8.08
2017-12-06T01:39:42.210Z,8.12
2017-12-06T01:39:42.809Z,8.10
2017-12-06T01:39:43.411Z,8.11
2017-12-06T01:39:44.015Z,8.15
2017-12-06T01:40:39.038Z,8.14
2017-12-06T01:40:39.603Z,8.08
2017-12-06T01:40:40.199Z,8.15
2017-12-06T01:40:40.799Z,8.08
2017-12-06T01:40:41.400Z,8.11
2017-12-06T01:40:41.998Z,8.17
2017-12-06T01:41:35.961Z,8.08
2017-12-06T01:41:36.534Z,8.11
2017-12-06T01:41:37.134Z,8.12
2017-12-06T01:41:37.741Z,8.12
2017-12-06T01:41:38.334Z,8.11
2017-12-06T01:41:38.934Z,8.11
2017-12-06T01:41:39.534Z,8.12
2017-12-06T01:41:40.140Z,8.12
2017-12-06T01:42:33.615Z,8.11
2017-12-06T01:42:34.187Z,8.14
2017-12-06T01:42:34.787Z,8.11
2017-12-06T01:42:35.388Z,8.10
2017-12-06T01:42:35.986Z,8.11
2017-12-06T01:42:36.588Z,8.08
2017-12-06T01:42:37.187Z,8.08
2017-12-06T01:42:37.786Z,8.11
2017-12-06T01:43:31.786Z,8.11
2017-12-06T01:43:32.355Z,8.17
2017-12-06T01:43:32.951Z,8.15
2017-12-06T01:43:33.551Z,8.17
2017-12-06T01:43:34.152Z,8.11
2017-12-06T01:43:34.751Z,8.15
2017-12-06T01:43:35.357Z,8.12
2017-12-06T01:44:28.920Z,8.18
2017-12-06T01:44:29.491Z,8.21
2017-12-06T01:44:30.095Z,8.10
2017-12-06T01:44:30.693Z,8.17
2017-12-06T01:44:31.292Z,8.14
2017-12-06T01:44:31.891Z,8.17
2017-12-06T01:44:32.544Z,8.17
2017-12-06T01:44:33.091Z,8.14
2017-12-06T01:45:26.582Z,8.12
2017-12-06T01:45:27.147Z,8.21
2017-12-06T01:45:27.745Z,8.21
2017-12-06T01:45:28.343Z,8.12
2017-12-06T01:45:28.944Z,8.18
2017-12-06T01:45:29.544Z,8.10
2017-12-06T01:45:30.142Z,8.22
2017-12-06T01:45:30.744Z,8.10
2017-12-06T01:46:24.224Z,8.11
2017-12-06T01:46:24.797Z,8.20
2017-12-06T01:46:25.404Z,8.18
2017-12-06T01:46:26.000Z,8.14
2017-12-06T01:46:26.595Z,8.11
2017-12-06T01:46:27.199Z,8.17
2017-12-06T01:46:27.795Z,8.10
2017-12-06T01:46:28.393Z,8.21
2017-12-06T01:47:21.876Z,8.18
2017-12-06T01:47:22.448Z,8.17
2017-12-06T01:47:23.048Z,8.12
2017-12-06T01:47:23.648Z,8.15
2017-12-06T01:47:24.247Z,8.14
2017-12-06T01:47:24.861Z,8.18
2017-12-06T01:47:25.448Z,8.18
2017-12-06T01:47:26.050Z,8.07
2017-12-06T01:48:19.535Z,8.15
2017-12-06T01:48:20.104Z,8.20
2017-12-06T01:48:20.701Z,8.17
2017-12-06T01:48:21.299Z,8.18
2017-12-06T01:48:21.899Z,8.17
2017-12-06T01:48:22.498Z,8.21
2017-12-06T01:48:23.098Z,8.17
2017-12-06T01:48:23.705Z,8.20
2017-12-06T01:49:17.177Z,8.20
2017-12-06T01:49:17.751Z,8.14
2017-12-06T01:49:18.351Z,8.20
2017-12-06T01:49:18.955Z,8.20
2017-12-06T01:49:19.554Z,8.17
2017-12-06T01:49:20.150Z,8.22
2017-12-06T01:49:20.751Z,8.20
2017-12-06T01:49:21.350Z,8.22
2017-12-06T01:50:15.858Z,8.15
2017-12-06T01:50:16.431Z,8.22
2017-12-06T01:50:17.027Z,8.20
2017-12-06T01:50:17.625Z,8.21
2017-12-06T01:50:18.225Z,8.25
2017-12-06T01:50:18.825Z,8.22
2017-12-06T01:50:19.424Z,8.22
2017-12-06T01:50:20.026Z,8.22
2017-12-06T01:51:14.528Z,8.15
2017-12-06T01:51:15.101Z,8.25
2017-12-06T01:51:15.702Z,8.26
2017-12-06T01:51:16.302Z,8.22
2017-12-06T01:51:16.901Z,8.20
2017-12-06T01:51:17.501Z,8.25
2017-12-06T01:51:18.102Z,8.21
2017-12-06T01:51:18.701Z,8.18
2017-12-06T01:52:13.718Z,8.20
2017-12-06T01:52:14.299Z,8.30
2017-12-06T01:52:14.897Z,8.26
2017-12-06T01:52:15.492Z,8.30
2017-12-06T01:52:16.089Z,8.26
2017-12-06T01:52:16.688Z,8.21
2017-12-06T01:52:17.290Z,8.26
2017-12-06T01:53:10.858Z,8.29
2017-12-06T01:53:11.431Z,8.25
2017-12-06T01:53:12.030Z,8.25
2017-12-06T01:53:12.630Z,8.28
2017-12-06T01:53:13.230Z,8.28
2017-12-06T01:53:13.831Z,8.28
2017-12-06T01:53:14.429Z,8.30
2017-12-06T01:53:15.038Z,8.22
2017-12-06T01:54:08.508Z,8.22
2017-12-06T01:54:09.081Z,8.29
2017-12-06T01:54:09.682Z,8.25
2017-12-06T01:54:10.290Z,8.29
2017-12-06T01:54:10.887Z,8.26
2017-12-06T01:54:11.481Z,8.29
2017-12-06T01:54:12.081Z,8.26
2017-12-06T01:54:12.680Z,8.28
2017-12-06T01:55:07.183Z,8.28
2017-12-06T01:55:07.757Z,8.25
2017-12-06T01:55:08.362Z,8.28
2017-12-06T01:55:08.968Z,8.36
2017-12-06T01:55:09.556Z,8.33
2017-12-06T01:55:10.156Z,8.28
2017-12-06T01:55:10.756Z,8.36
2017-12-06T01:55:11.357Z,8.36
2017-12-06T01:56:04.838Z,8.36
2017-12-06T01:56:05.408Z,8.39
2017-12-06T01:56:06.007Z,8.32
2017-12-06T01:56:06.608Z,8.29
2017-12-06T01:56:07.208Z,8.35
2017-12-06T01:56:07.811Z,8.36
2017-12-06T01:56:08.412Z,8.36
2017-12-06T01:56:09.008Z,8.35
2017-12-06T01:57:03.510Z,8.29
2017-12-06T01:57:04.083Z,8.37
2017-12-06T01:57:04.685Z,8.36
2017-12-06T01:57:05.283Z,8.26
2017-12-06T01:57:05.883Z,8.37
2017-12-06T01:57:06.483Z,8.36
2017-12-06T01:57:07.082Z,8.32
2017-12-06T01:57:07.682Z,8.30
2017-12-06T01:58:01.270Z,8.33
2017-12-06T01:58:01.847Z,8.36
2017-12-06T01:58:02.448Z,8.36
2017-12-06T01:58:03.038Z,8.32
2017-12-06T01:58:03.639Z,8.35
2017-12-06T01:58:04.238Z,8.35
2017-12-06T01:58:04.838Z,8.33
2017-12-06T01:58:05.438Z,8.39
2017-12-06T01:58:58.918Z,8.35
2017-12-06T01:58:59.491Z,8.39
2017-12-06T01:59:00.094Z,8.39
2017-12-06T01:59:00.693Z,8.42
2017-12-06T01:59:01.292Z,8.39
2017-12-06T01:59:01.890Z,8.40
2017-12-06T01:59:02.490Z,8.37
2017-12-06T01:59:03.090Z,8.36
2017-12-06T01:59:56.568Z,8.40
2017-12-06T01:59:57.144Z,8.37
2017-12-06T01:59:57.742Z,8.42
2017-12-06T01:59:58.343Z,8.33
2017-12-06T01:59:58.943Z,8.39
2017-12-06T01:59:59.542Z,8.42
2017-12-06T02:00:00.142Z,8.39
2017-12-06T02:00:00.763Z,8.37
2017-12-06T02:00:54.735Z,8.45
2017-12-06T02:00:55.311Z,8.36
2017-12-06T02:00:55.908Z,8.40
2017-12-06T02:00:56.505Z,8.42
2017-12-06T02:00:57.105Z,8.39
2017-12-06T02:00:57.706Z,8.45
2017-12-06T02:00:58.305Z,8.42
2017-12-06T02:01:52.693Z,8.42
2017-12-06T02:01:53.267Z,8.40
2017-12-06T02:01:53.884Z,8.47
2017-12-06T02:01:54.464Z,8.47
2017-12-06T02:01:55.065Z,8.42
2017-12-06T02:01:55.670Z,8.44
2017-12-06T02:01:56.267Z,8.45
2017-12-06T02:01:56.873Z,8.44
2017-12-06T02:02:50.347Z,8.42
2017-12-06T02:02:50.918Z,8.45
2017-12-06T02:02:51.525Z,8.44
2017-12-06T02:02:52.118Z,8.44
2017-12-06T02:02:52.717Z,8.37
2017-12-06T02:02:53.318Z,8.44
2017-12-06T02:02:53.921Z,8.44
2017-12-06T02:02:54.516Z,8.44
2017-12-06T02:03:48.007Z,8.40
2017-12-06T02:03:48.577Z,8.47
2017-12-06T02:03:49.172Z,8.42
2017-12-06T02:03:49.769Z,8.48
2017-12-06T02:03:50.369Z,8.35
2017-12-06T02:03:50.970Z,8.50
2017-12-06T02:03:51.570Z,8.45
2017-12-06T02:03:52.169Z,8.40
2017-12-06T02:04:45.647Z,8.40
2017-12-06T02:04:46.225Z,8.44
2017-12-06T02:04:46.819Z,8.44
2017-12-06T02:04:47.428Z,8.39
2017-12-06T02:04:48.030Z,8.44
2017-12-06T02:04:48.625Z,8.45
2017-12-06T02:04:49.233Z,8.44
2017-12-06T02:04:49.819Z,8.44
2017-12-06T02:05:43.300Z,8.45
2017-12-06T02:05:43.876Z,8.48
2017-12-06T02:05:44.473Z,8.48
2017-12-06T02:05:45.075Z,8.45
2017-12-06T02:05:45.677Z,8.48
2017-12-06T02:05:46.275Z,8.45
2017-12-06T02:05:46.872Z,8.45
2017-12-06T02:05:47.472Z,8.48
2017-12-06T02:06:41.974Z,8.45
2017-12-06T02:06:42.548Z,8.40
2017-12-06T02:06:43.147Z,8.45
2017-12-06T02:06:43.746Z,8.50
2017-12-06T02:06:44.346Z,8.45
2017-12-06T02:06:44.958Z,8.48
2017-12-06T02:06:45.559Z,8.40
2017-12-06T02:06:46.160Z,8.42
2017-12-06T02:07:39.625Z,8.51
2017-12-06T02:07:40.199Z,8.42
2017-12-06T02:07:40.800Z,8.48
2017-12-06T02:07:41.399Z,8.53
2017-12-06T02:07:42.000Z,8.48
2017-12-06T02:07:42.600Z,8.45
2017-12-06T02:07:43.199Z,8.45
2017-12-06T02:07:43.799Z,8.48
2017-12-06T02:08:37.281Z,8.48
2017-12-06T02:08:37.852Z,8.50
2017-12-06T02:08:38.458Z,8.48
2017-12-06T02:08:39.051Z,8.48
2017-12-06T02:08:39.651Z,8.48
2017-12-06T02:08:40.250Z,8.50
2017-12-06T02:08:40.850Z,8.47
2017-12-06T02:08:41.451Z,8.54
2017-12-06T02:09:34.939Z,8.44
2017-12-06T02:09:35.502Z,8.47
2017-12-06T02:09:36.111Z,8.54
2017-12-06T02:09:36.702Z,8.53
2017-12-06T02:09:37.314Z,8.50
2017-12-06T02:09:37.904Z,8.48
2017-12-06T02:09:38.502Z,8.50
2017-12-06T02:09:39.101Z,8.51
2017-12-06T02:10:32.580Z,8.50
2017-12-06T02:10:33.155Z,8.55
2017-12-06T02:10:33.756Z,8.48
2017-12-06T02:10:34.354Z,8.53
2017-12-06T02:10:34.956Z,8.55
2017-12-06T02:10:35.553Z,8.54
2017-12-06T02:10:36.154Z,8.54
2017-12-06T02:10:36.753Z,8.55
2017-12-06T02:11:30.237Z,8.47
2017-12-06T02:11:30.818Z,8.54
2017-12-06T02:11:31.408Z,8.55
2017-12-06T02:11:32.005Z,8.55
2017-12-06T02:11:32.608Z,8.53
2017-12-06T02:11:33.206Z,8.50
2017-12-06T02:11:33.807Z,8.55
2017-12-06T02:11:34.405Z,8.50
2017-12-06T02:12:28.907Z,8.50
2017-12-06T02:12:29.481Z,8.55
2017-12-06T02:12:30.084Z,8.51
2017-12-06T02:12:30.682Z,8.51
2017-12-06T02:12:31.283Z,8.51
2017-12-06T02:12:31.878Z,8.51
2017-12-06T02:12:32.479Z,8.50
2017-12-06T02:12:33.086Z,8.50
2017-12-06T02:13:27.584Z,8.50
2017-12-06T02:13:28.156Z,8.60
2017-12-06T02:13:28.758Z,8.54
2017-12-06T02:13:29.356Z,8.53
2017-12-06T02:13:29.956Z,8.54
2017-12-06T02:13:30.556Z,8.58
2017-12-06T02:13:31.157Z,8.51
2017-12-06T02:13:31.757Z,8.54
2017-12-06T02:14:25.283Z,8.57
2017-12-06T02:14:25.809Z,8.54
2017-12-06T02:14:26.409Z,8.54
2017-12-06T02:14:27.008Z,8.55
2017-12-06T02:14:27.608Z,8.60
2017-12-06T02:14:28.207Z,8.55
2017-12-06T02:14:28.808Z,8.55
2017-12-06T02:14:29.408Z,8.53
2017-12-06T02:15:22.890Z,8.60
2017-12-06T02:15:23.464Z,8.63
2017-12-06T02:15:24.062Z,8.66
2017-12-06T02:15:24.664Z,8.63
2017-12-06T02:15:25.265Z,8.60
2017-12-06T02:15:26.440Z,8.54
2017-12-06T02:15:26.944Z,8.63
2017-12-06T02:16:41.428Z,8.63
2017-12-06T02:16:42.002Z,8.60
2017-12-06T02:16:42.601Z,8.58
2017-12-06T02:16:43.201Z,8.62
2017-12-06T02:16:43.801Z,8.62
2017-12-06T02:16:44.400Z,8.60
2017-12-06T02:16:45.001Z,8.62
2017-12-06T02:16:45.602Z,8.62
2017-12-06T02:17:39.085Z,8.60
2017-12-06T02:17:39.654Z,8.63
2017-12-06T02:17:40.255Z,8.57
2017-12-06T02:17:40.866Z,8.57
2017-12-06T02:17:41.453Z,8.60
2017-12-06T02:17:42.055Z,8.58
2017-12-06T02:17:42.707Z,8.54
2017-12-06T02:17:43.252Z,8.51
2017-12-06T02:18:37.755Z,8.63
2017-12-06T02:18:38.329Z,8.63
2017-12-06T02:18:38.928Z,8.62
2017-12-06T02:18:39.533Z,8.57
2017-12-06T02:18:40.788Z,8.60
2017-12-06T02:18:41.301Z,8.63
2017-12-06T02:18:41.891Z,8.54
2017-12-06T02:19:35.407Z,8.65
2017-12-06T02:19:35.983Z,8.60
2017-12-06T02:19:36.582Z,8.63
2017-12-06T02:19:37.188Z,8.63
2017-12-06T02:19:37.780Z,8.58
2017-12-06T02:19:38.381Z,8.63
2017-12-06T02:19:38.981Z,8.63
2017-12-06T02:19:39.580Z,8.54
2017-12-06T02:20:33.065Z,8.58
2017-12-06T02:20:33.633Z,8.60
2017-12-06T02:20:34.233Z,8.63
2017-12-06T02:20:34.832Z,8.60
2017-12-06T02:20:35.434Z,8.62
2017-12-06T02:20:36.031Z,8.54
2017-12-06T02:20:36.631Z,8.58
2017-12-06T02:20:37.231Z,8.66
2017-12-06T02:21:30.710Z,8.57
2017-12-06T02:21:31.285Z,8.60
2017-12-06T02:21:31.886Z,8.63
2017-12-06T02:21:32.484Z,8.58
2017-12-06T02:21:33.084Z,8.58
2017-12-06T02:21:33.685Z,8.58
2017-12-06T02:21:34.286Z,8.62
2017-12-06T02:21:34.885Z,8.58
2017-12-06T02:22:29.386Z,8.65
2017-12-06T02:22:29.959Z,8.54
2017-12-06T02:22:30.558Z,8.58
2017-12-06T02:22:31.160Z,8.58
2017-12-06T02:22:31.760Z,8.55
2017-12-06T02:22:32.359Z,8.68
2017-12-06T02:22:32.959Z,8.57
2017-12-06T02:22:33.559Z,8.54
2017-12-06T02:23:27.037Z,8.57
2017-12-06T02:23:27.611Z,8.60
2017-12-06T02:23:28.212Z,8.57
2017-12-06T02:23:28.829Z,8.65
2017-12-06T02:23:29.411Z,8.58
2017-12-06T02:23:30.013Z,8.63
2017-12-06T02:23:30.610Z,8.62
2017-12-06T02:23:31.209Z,8.60
2017-12-06T02:24:24.688Z,8.57
2017-12-06T02:24:25.264Z,8.58
2017-12-06T02:24:25.864Z,8.53
2017-12-06T02:24:26.463Z,8.57
2017-12-06T02:24:27.064Z,8.60
2017-12-06T02:24:27.664Z,8.57
2017-12-06T02:24:28.263Z,8.58
2017-12-06T02:24:28.871Z,8.63
2017-12-06T02:25:22.341Z,8.66
2017-12-06T02:25:22.915Z,8.60
2017-12-06T02:25:23.515Z,8.60
2017-12-06T02:25:24.117Z,8.58
2017-12-06T02:25:24.714Z,8.65
2017-12-06T02:25:25.313Z,8.60
2017-12-06T02:25:25.916Z,8.60
2017-12-06T02:25:26.514Z,8.60
2017-12-06T02:26:19.994Z,8.57
2017-12-06T02:26:20.570Z,8.62
2017-12-06T02:26:21.167Z,8.63
2017-12-06T02:26:21.767Z,8.55
2017-12-06T02:26:22.366Z,8.54
2017-12-06T02:26:22.967Z,8.62
2017-12-06T02:26:23.567Z,8.65
2017-12-06T02:26:24.166Z,8.58
2017-12-06T02:27:30.353Z,8.58
2017-12-06T02:27:30.916Z,8.54
2017-12-06T02:27:31.516Z,8.69
2017-12-06T02:27:32.115Z,8.57
2017-12-06T02:27:32.715Z,8.55
2017-12-06T02:27:33.316Z,8.65
2017-12-06T02:27:33.917Z,8.58
2017-12-06T02:27:34.515Z,8.65
2017-12-06T02:28:29.017Z,8.57
2017-12-06T02:28:29.593Z,8.54
2017-12-06T02:28:30.208Z,8.58
2017-12-06T02:28:30.794Z,8.57
2017-12-06T02:28:31.390Z,8.62
2017-12-06T02:28:31.990Z,8.54
2017-12-06T02:28:32.589Z,8.62
2017-12-06T02:28:33.190Z,8.63
2017-12-06T02:29:26.667Z,8.54
2017-12-06T02:29:27.248Z,8.62
2017-12-06T02:29:27.844Z,8.55
2017-12-06T02:29:28.443Z,8.62
2017-12-06T02:29:29.043Z,8.58
2017-12-06T02:29:29.644Z,8.55
2017-12-06T02:29:30.243Z,8.58
2017-12-06T02:29:30.843Z,8.66
2017-12-06T02:30:25.346Z,8.63
2017-12-06T02:30:25.919Z,8.57
2017-12-06T02:30:26.520Z,8.55
2017-12-06T02:30:27.118Z,8.62
2017-12-06T02:30:27.718Z,8.57
2017-12-06T02:30:28.318Z,8.60
2017-12-06T02:30:28.929Z,8.62
2017-12-06T02:30:29.517Z,8.58
2017-12-06T02:31:22.996Z,8.63
2017-12-06T02:31:23.572Z,8.65
2017-12-06T02:31:24.170Z,8.58
2017-12-06T02:31:24.771Z,8.60
2017-12-06T02:31:25.371Z,8.63
2017-12-06T02:31:25.971Z,8.57
2017-12-06T02:31:26.570Z,8.57
2017-12-06T02:31:27.172Z,8.63
2017-12-06T02:32:21.672Z,8.53
2017-12-06T02:32:22.245Z,8.62
2017-12-06T02:32:22.847Z,8.58
2017-12-06T02:32:23.445Z,8.58
2017-12-06T02:32:24.045Z,8.63
2017-12-06T02:32:24.701Z,8.63
2017-12-06T02:32:25.244Z,8.57
2017-12-06T02:32:25.845Z,8.62
2017-12-06T02:33:20.348Z,8.62
2017-12-06T02:33:20.922Z,8.58
2017-12-06T02:33:21.524Z,8.57
2017-12-06T02:33:22.120Z,8.66
2017-12-06T02:33:22.723Z,8.63
2017-12-06T02:33:23.321Z,8.57
2017-12-06T02:33:23.919Z,8.54
2017-12-06T02:33:24.521Z,8.57
2017-12-06T02:34:19.023Z,8.60
2017-12-06T02:34:19.598Z,8.55
2017-12-06T02:34:20.201Z,8.62
2017-12-06T02:34:20.797Z,8.54
2017-12-06T02:52:02.563Z,8.36
2017-12-06T02:52:03.071Z,8.42
2017-12-06T02:52:03.684Z,8.37
2017-12-06T02:52:04.266Z,8.36
2017-12-06T02:52:04.860Z,8.36
2017-12-06T02:52:05.464Z,8.37
2017-12-06T02:52:06.060Z,8.35
2017-12-06T02:53:20.583Z,8.30
2017-12-06T02:53:21.157Z,8.37
2017-12-06T02:53:21.757Z,8.33
2017-12-06T02:53:22.356Z,8.42
2017-12-06T02:53:22.955Z,8.30
2017-12-06T02:53:23.559Z,8.39
2017-12-06T02:53:24.156Z,8.35
2017-12-06T02:53:24.755Z,8.36
2017-12-06T02:54:18.235Z,8.29
2017-12-06T02:54:18.809Z,8.42
2017-12-06T02:54:19.409Z,8.37
2017-12-06T02:54:20.009Z,8.32
2017-12-06T02:54:20.607Z,8.37
2017-12-06T02:54:21.209Z,8.35
2017-12-06T02:54:21.809Z,8.35
2017-12-06T02:54:22.408Z,8.37
2017-12-06T02:55:15.888Z,8.36
2017-12-06T02:55:16.462Z,8.30
2017-12-06T02:55:17.061Z,8.37
2017-12-06T02:55:17.661Z,8.39
2017-12-06T02:55:18.260Z,8.37
2017-12-06T02:55:18.860Z,8.36
2017-12-06T02:55:19.462Z,8.36
2017-12-06T02:55:20.060Z,8.32
2017-12-06T02:56:14.564Z,8.33
2017-12-06T02:56:15.138Z,8.30
2017-12-06T02:56:15.736Z,8.36
2017-12-06T02:56:16.337Z,8.30
2017-12-06T02:56:16.936Z,8.30
2017-12-06T02:56:17.539Z,8.36
2017-12-06T02:56:18.167Z,8.36
2017-12-06T02:56:18.734Z,8.30
2017-12-06T02:57:12.227Z,8.36
2017-12-06T02:57:12.791Z,8.32
2017-12-06T02:57:13.389Z,8.37
2017-12-06T02:57:13.990Z,8.36
2017-12-06T02:57:14.590Z,8.35
2017-12-06T02:57:15.189Z,8.32
2017-12-06T02:57:15.789Z,8.37
2017-12-06T02:57:16.388Z,8.32
2017-12-06T02:58:11.424Z,8.26
2017-12-06T02:58:11.924Z,8.30
2017-12-06T02:58:12.523Z,8.36
2017-12-06T02:58:13.123Z,8.30
2017-12-06T02:58:13.723Z,8.39
2017-12-06T02:58:14.323Z,8.36
2017-12-06T02:58:14.924Z,8.39
2017-12-06T02:59:08.440Z,8.25
2017-12-06T02:59:09.015Z,8.29
2017-12-06T02:59:09.616Z,8.36
2017-12-06T02:59:10.215Z,8.30
2017-12-06T02:59:10.814Z,8.35
2017-12-06T02:59:11.414Z,8.36
2017-12-06T02:59:12.015Z,8.33
2017-12-06T02:59:12.615Z,8.35
2017-12-06T03:00:06.094Z,8.28
2017-12-06T03:00:06.668Z,8.25
2017-12-06T03:00:07.268Z,8.36
2017-12-06T03:00:07.866Z,8.37
2017-12-06T03:00:08.469Z,8.36
2017-12-06T03:00:09.067Z,8.26
2017-12-06T03:00:09.665Z,8.33
2017-12-06T03:00:10.266Z,8.35
2017-12-06T03:01:04.772Z,8.33
2017-12-06T03:01:05.341Z,8.35
2017-12-06T03:01:06.001Z,8.29
2017-12-06T03:01:06.541Z,8.30
2017-12-06T03:01:07.141Z,8.36
2017-12-06T03:01:07.742Z,8.30
2017-12-06T03:01:08.341Z,8.36
2017-12-06T03:01:08.941Z,8.26
2017-12-06T03:02:02.422Z,8.33
2017-12-06T03:02:02.994Z,8.29
2017-12-06T03:02:03.595Z,8.29
2017-12-06T03:02:04.197Z,8.35
2017-12-06T03:02:04.794Z,8.28
2017-12-06T03:02:05.396Z,8.36
2017-12-06T03:02:06.006Z,8.36
2017-12-06T03:02:06.598Z,8.32
2017-12-06T03:03:00.073Z,8.30
2017-12-06T03:03:00.650Z,8.30
2017-12-06T03:03:01.246Z,8.30
2017-12-06T03:03:01.848Z,8.36
2017-12-06T03:03:03.125Z,8.37
2017-12-06T03:03:03.629Z,8.36
2017-12-06T03:03:04.228Z,8.32
2017-12-06T03:03:57.725Z,8.40
2017-12-06T03:03:58.298Z,8.32
2017-12-06T03:03:58.897Z,8.35
2017-12-06T03:03:59.500Z,8.33
2017-12-06T03:04:00.098Z,8.42
2017-12-06T03:04:00.699Z,8.30
2017-12-06T03:04:01.298Z,8.33
2017-12-06T03:04:01.904Z,8.35
2017-12-06T03:04:55.888Z,8.29
2017-12-06T03:04:56.464Z,8.39
2017-12-06T03:04:57.060Z,8.33
2017-12-06T03:04:57.661Z,8.37
2017-12-06T03:04:58.260Z,8.40
2017-12-06T03:04:58.860Z,8.37
2017-12-06T03:04:59.459Z,8.35
2017-12-06T03:05:53.030Z,8.36
2017-12-06T03:05:53.608Z,8.40
2017-12-06T03:05:54.202Z,8.36
2017-12-06T03:05:54.802Z,8.32
2017-12-06T03:05:55.401Z,8.45
2017-12-06T03:05:56.004Z,8.45
2017-12-06T03:05:56.603Z,8.42
2017-12-06T03:05:57.201Z,8.36
2017-12-06T03:06:50.679Z,8.40
2017-12-06T03:06:51.256Z,8.39
2017-12-06T03:06:51.857Z,8.47
2017-12-06T03:06:52.463Z,8.40
2017-12-06T03:06:53.097Z,8.44
2017-12-06T03:06:53.657Z,8.42
2017-12-06T03:06:54.307Z,8.42
2017-12-06T03:06:54.888Z,8.42
2017-12-06T03:07:49.890Z,8.37
2017-12-06T03:07:50.387Z,8.42
2017-12-06T03:07:50.984Z,8.45
2017-12-06T03:07:51.584Z,8.40
2017-12-06T03:07:52.184Z,8.40
2017-12-06T03:07:52.783Z,8.40
2017-12-06T03:07:53.384Z,8.44
2017-12-06T03:09:06.258Z,8.42
2017-12-06T03:09:06.834Z,8.45
2017-12-06T03:09:07.431Z,8.48
2017-12-06T03:09:08.031Z,8.44
2017-12-06T03:09:08.632Z,8.44
2017-12-06T03:09:09.232Z,8.42
2017-12-06T03:09:09.832Z,8.37
2017-12-06T03:09:10.432Z,8.42
2017-12-06T03:10:03.910Z,8.42
2017-12-06T03:10:04.484Z,8.47
2017-12-06T03:10:05.083Z,8.39
2017-12-06T03:10:05.683Z,8.48
2017-12-06T03:10:06.283Z,8.45
2017-12-06T03:10:06.885Z,8.45
2017-12-06T03:10:07.483Z,8.48
2017-12-06T03:10:08.084Z,8.42
2017-12-06T03:11:01.561Z,8.40
2017-12-06T03:11:02.136Z,8.48
2017-12-06T03:11:02.736Z,8.35
2017-12-06T03:11:03.338Z,8.45
2017-12-06T03:11:03.937Z,8.47
2017-12-06T03:11:05.113Z,8.37
2017-12-06T03:11:05.616Z,8.48
2017-12-06T03:12:19.189Z,8.48
2017-12-06T03:12:19.765Z,8.45
2017-12-06T03:12:20.356Z,8.39
2017-12-06T03:12:20.955Z,8.35
2017-12-06T03:12:21.554Z,8.40
2017-12-06T03:12:22.157Z,8.50
2017-12-06T03:12:22.755Z,8.47
2017-12-06T03:12:23.354Z,8.42
2017-12-06T03:13:17.858Z,8.42
2017-12-06T03:13:18.430Z,8.39
2017-12-06T03:13:19.030Z,8.42
2017-12-06T03:13:19.630Z,8.44
2017-12-06T03:13:20.232Z,8.44
2017-12-06T03:13:20.830Z,8.44
2017-12-06T03:13:21.429Z,8.44
2017-12-06T03:13:22.030Z,8.40
2017-12-06T03:14:16.532Z,8.51
2017-12-06T03:14:17.105Z,8.48
2017-12-06T03:14:17.706Z,8.44
2017-12-06T03:14:18.305Z,8.45
2017-12-06T03:14:18.906Z,8.50
2017-12-06T03:14:19.506Z,8.45
2017-12-06T03:14:20.105Z,8.44
2017-12-06T03:14:20.705Z,8.47
2017-12-06T03:15:15.207Z,8.42
2017-12-06T03:15:15.783Z,8.47
2017-12-06T03:15:16.382Z,8.48
2017-12-06T03:15:16.991Z,8.50
2017-12-06T03:15:17.582Z,8.45
2017-12-06T03:15:18.181Z,8.53
2017-12-06T03:15:18.781Z,8.50
2017-12-06T03:15:19.380Z,8.45
2017-12-06T03:16:12.860Z,8.50
2017-12-06T03:16:13.433Z,8.53
2017-12-06T03:16:14.033Z,8.50
2017-12-06T03:16:14.635Z,8.50
2017-12-06T03:16:15.233Z,8.51
2017-12-06T03:16:15.835Z,8.50
2017-12-06T03:16:16.432Z,8.48
2017-12-06T03:16:17.034Z,8.51
2017-12-06T03:17:10.511Z,8.54
2017-12-06T03:17:11.086Z,8.51
2017-12-06T03:17:11.685Z,8.50
2017-12-06T03:17:12.286Z,8.51
2017-12-06T03:17:12.887Z,8.50
2017-12-06T03:17:13.484Z,8.57
2017-12-06T03:17:14.085Z,8.51
2017-12-06T03:17:14.684Z,8.50
2017-12-06T03:18:09.189Z,8.50
2017-12-06T03:18:09.762Z,8.48
2017-12-06T03:18:10.362Z,8.50
2017-12-06T03:18:10.960Z,8.53
2017-12-06T03:18:11.562Z,8.48
2017-12-06T03:18:12.162Z,8.50
2017-12-06T03:18:12.764Z,8.50
2017-12-06T03:18:13.361Z,8.53
2017-12-06T03:19:06.839Z,8.50
2017-12-06T03:19:07.412Z,8.54
2017-12-06T03:19:08.014Z,8.54
2017-12-06T03:19:08.612Z,8.60
2017-12-06T03:19:09.213Z,8.57
2017-12-06T03:19:09.814Z,8.55
2017-12-06T03:19:10.412Z,8.53
2017-12-06T03:19:11.013Z,8.54
2017-12-06T03:20:05.515Z,8.60
2017-12-06T03:20:06.087Z,8.54
2017-12-06T03:20:06.690Z,8.54
2017-12-06T03:20:07.287Z,8.54
2017-12-06T03:20:07.892Z,8.60
2017-12-06T03:20:08.495Z,8.54
2017-12-06T03:20:09.086Z,8.55
2017-12-06T03:20:09.687Z,8.54
2017-12-06T03:21:04.190Z,8.53
2017-12-06T03:21:04.765Z,8.54
2017-12-06T03:21:05.364Z,8.54
2017-12-06T03:21:05.964Z,8.57
2017-12-06T03:21:06.563Z,8.62
2017-12-06T03:21:07.163Z,8.55
2017-12-06T03:21:07.765Z,8.62
2017-12-06T03:21:08.364Z,8.57
2017-12-06T03:22:02.869Z,8.57
2017-12-06T03:22:03.440Z,8.57
2017-12-06T03:22:04.040Z,8.54
2017-12-06T03:22:04.640Z,8.57
2017-12-06T03:22:05.238Z,8.58
2017-12-06T03:22:05.867Z,8.54
2017-12-06T03:22:06.444Z,8.53
2017-12-06T03:22:07.038Z,8.60
2017-12-06T03:23:00.517Z,8.58
2017-12-06T03:23:01.093Z,8.54
2017-12-06T03:23:01.692Z,8.48
2017-12-06T03:23:02.291Z,8.54
2017-12-06T03:23:02.892Z,8.55
2017-12-06T03:23:03.491Z,8.60
2017-12-06T03:23:04.096Z,8.55
2017-12-06T03:23:04.691Z,8.54
2017-12-06T03:23:58.170Z,8.57
2017-12-06T03:23:58.745Z,8.57
2017-12-06T03:23:59.343Z,8.57
2017-12-06T03:23:59.944Z,8.51
2017-12-06T03:24:00.543Z,8.58
2017-12-06T03:24:01.143Z,8.54
2017-12-06T03:24:01.743Z,8.55
2017-12-06T03:24:02.348Z,8.58
2017-12-06T03:24:56.332Z,8.50
2017-12-06T03:24:56.911Z,8.55
2017-12-06T03:24:57.507Z,8.55
2017-12-06T03:24:58.106Z,8.57
2017-12-06T03:24:58.706Z,8.54
2017-12-06T03:24:59.308Z,8.55
2017-12-06T03:24:59.906Z,8.58
2017-12-06T03:25:53.474Z,8.54
2017-12-06T03:25:54.049Z,8.58
2017-12-06T03:25:54.652Z,8.63
2017-12-06T03:25:55.249Z,8.57
2017-12-06T03:25:55.846Z,8.57
2017-12-06T03:25:56.446Z,8.55
2017-12-06T03:25:57.045Z,8.63
2017-12-06T03:25:57.644Z,8.60
2017-12-06T03:26:51.124Z,8.57
2017-12-06T03:26:51.745Z,8.58
2017-12-06T03:26:52.298Z,8.58
2017-12-06T03:26:52.898Z,8.54
2017-12-06T03:26:53.499Z,8.57
2017-12-06T03:26:54.099Z,8.63
2017-12-06T03:26:54.699Z,8.58
2017-12-06T03:26:55.298Z,8.60
2017-12-06T03:27:48.774Z,8.60
2017-12-06T03:27:49.350Z,8.58
2017-12-06T03:27:49.951Z,8.58
2017-12-06T03:27:50.550Z,8.58
2017-12-06T03:27:51.153Z,8.60
2017-12-06T03:27:51.749Z,8.55
2017-12-06T03:27:52.349Z,8.63
2017-12-06T03:27:52.949Z,8.66
2017-12-06T03:28:46.428Z,8.62
2017-12-06T03:28:47.001Z,8.57
2017-12-06T03:28:47.602Z,8.55
2017-12-06T03:28:48.202Z,8.57
2017-12-06T03:28:49.485Z,8.58
2017-12-06T03:28:49.984Z,8.62
2017-12-06T03:28:50.582Z,8.58
2017-12-06T03:29:44.080Z,8.55
2017-12-06T03:29:44.654Z,8.57
2017-12-06T03:29:45.253Z,8.57
2017-12-06T03:29:45.854Z,8.51
2017-12-06T03:29:46.456Z,8.55
2017-12-06T03:29:47.054Z,8.57
2017-12-06T03:29:47.653Z,8.54
2017-12-06T03:29:48.253Z,8.58
2017-12-06T03:30:41.749Z,8.55
2017-12-06T03:30:42.311Z,8.55
2017-12-06T03:30:42.906Z,8.58
2017-12-06T03:30:43.506Z,8.55
2017-12-06T03:30:44.108Z,8.57
2017-12-06T03:30:44.706Z,8.54
2017-12-06T03:30:45.306Z,8.58
2017-12-06T03:30:45.905Z,8.60
2017-12-06T03:31:39.383Z,8.63
2017-12-06T03:31:39.972Z,8.60
2017-12-06T03:31:40.556Z,8.57
2017-12-06T03:31:41.161Z,8.63
2017-12-06T03:31:41.759Z,8.57
2017-12-06T03:31:42.358Z,8.62
2017-12-06T03:31:42.957Z,8.53
2017-12-06T03:31:43.557Z,8.57
2017-12-06T03:32:37.035Z,8.58
2017-12-06T03:32:37.608Z,8.63
2017-12-06T03:32:38.207Z,8.65
2017-12-06T03:32:38.809Z,8.57
2017-12-06T03:32:39.407Z,8.58
2017-12-06T03:32:40.008Z,8.55
2017-12-06T03:32:40.607Z,8.63
2017-12-06T03:32:41.206Z,8.54
2017-12-06T03:33:35.711Z,8.60
2017-12-06T03:33:36.287Z,8.51
2017-12-06T03:33:37.011Z,8.58
2017-12-06T03:33:37.514Z,8.63
2017-12-06T03:33:38.114Z,8.58
2017-12-06T03:33:38.716Z,8.62
2017-12-06T03:33:39.315Z,8.69
2017-12-06T03:33:39.922Z,8.63
2017-12-06T03:34:34.386Z,8.58
2017-12-06T03:34:34.961Z,8.53
2017-12-06T03:34:35.558Z,8.57
2017-12-06T03:34:36.158Z,8.65
2017-12-06T03:34:36.767Z,8.58
2017-12-06T03:34:37.370Z,8.58
2017-12-06T03:34:37.957Z,8.57
2017-12-06T03:34:38.558Z,8.55
2017-12-06T03:35:32.037Z,8.55
2017-12-06T03:35:32.611Z,8.63